메인 페이지
METAR-TAF:

METAR-TAF

공항 :

산카를로스데바릴로체, 아르헨티나

위도: 41-09S, 경도: 071-10W, 고도: 845m

현재 날씨관측

예보는 43분 전, 19:10시(UTC)에 발표되었습니다.
10kt
온도 2°C
습도 75%
기압 1013 hPa
시정: 7000m
고도 3000ft 상공 구름 많음
약한눈,

METAR: SAZS 191910Z 27010KT 7000 -SN BKN030 02/M02 Q1013 RESN

시각: 16:53 (19:53 UTC)

예보

예보는 41분 전, 19:12시(UTC)에 발표되었습니다.
예보 대상 시간: 19일 19시부터 20일 18시까지 (UTC)
서북서10kt
시정 10km 이상
고도 3000ft 상공 구름 많음
일시적
19일 19시부터 19일 23시까지 (UTC)
시정: 5000m
고도 3000ft 상공 흐림
전환 중
20일 00시부터 20일 02시까지 (UTC)
동남동10kt
시정: 5000m
고도 1500ft 상공 구름 보통
고도 2000ft 상공 흐림
전환 중
20일 06시부터 20일 08시까지 (UTC)
10kt, 순간 최대 풍속 20kt
시정: 2000m
고도 800ft 상공 구름 많음
고도 1200ft 상공 흐림
일시적
20일 08시부터 20일 15시까지 (UTC)
시정: 0800m
고도 600ft 상공 흐림
강한눈,

TAF: SAZS 191912Z 1919/2018 29010KT 9999 BKN030 TX02/1919Z TNM02/2010Z TEMPO 1919/1923 5000 SN OVC030 BECMG 2000/2002 12010KT 5000 SN SCT015 OVC020 BECMG 2006/2008 09010G20KT 2000 SN BKN008 OVC012 TEMPO 2008/2015 0800 +SN OVC006

4,000개 이상의 공항 관측 자료 및 예보 (METAR 및 TAF 보고).

지도상에서 검색 가능한 기상관측소가 노란 점과 빨간 점으로 표시되어 있습니다.

기상관측소 명을 보려면 표시 위로 마우스를 이동하세요.

날씨 관측과 예보를 보려면 클릭하세요.

지도 변경 : 확대하려면 엑스 표시가 있는 녹색 버튼, 축소하려면 빼기 표시가 있는 녹색 버튼, 다음 페이지의 지도를 보려면 녹색 화살표를 클릭하세요.


METAR-TAF: